Time;durP1;ratioP1;P1;durP2;ratioP2;P2;SDS_P1;SDS_P2;PMS_P1;PMS_P2;Temp;Humidity;BMP_temperature;BMP_pressure;BME280_temperature;BME280_humidity;BME280_pressure;Samples;Min_cycle;Max_cycle;Signal;HPM_P1;HPM_P2
2022/11/13 00:01:38;;;;;;;4.55;2.00;;;;;;;12.83;44.90;101668.47;5045339;28;20045;-71
2022/11/13 00:04:06;;;;;;;5.97;2.35;;;;;;;12.76;47.71;101669.97;5046748;28;20128;-74
2022/11/13 00:06:35;;;;;;;3.63;1.83;;;;;;;12.64;49.85;101674.69;5049841;28;20055;-74
2022/11/13 00:09:10;;;;;;;3.53;1.90;;;;;;;12.58;45.85;101679.69;5045524;28;20140;-75
2022/11/13 00:11:41;;;;;;;3.35;2.15;;;;;;;12.54;46.17;101683.00;5049153;28;20063;-75
2022/11/13 00:14:09;;;;;;;4.43;2.28;;;;;;;12.48;45.87;101690.56;5048470;28;20049;-74
2022/11/13 00:16:38;;;;;;;3.75;2.30;;;;;;;12.41;46.93;101691.16;5049606;28;20053;-74
2022/11/13 00:19:07;;;;;;;4.25;1.75;;;;;;;12.33;47.27;101689.16;5050788;28;20079;-74
2022/11/13 00:21:35;;;;;;;4.85;2.80;;;;;;;12.24;46.81;101691.41;5047607;28;20049;-75
2022/11/13 00:24:04;;;;;;;5.00;3.03;;;;;;;12.12;47.99;101697.03;5046251;28;20054;-76
2022/11/13 00:26:33;;;;;;;5.22;2.17;;;;;;;12.03;51.24;101701.00;5046315;28;20065;-74
2022/11/13 00:29:04;;;;;;;4.15;2.35;;;;;;;11.95;52.04;101711.06;5050685;28;20041;-72
2022/11/13 00:31:36;;;;;;;5.65;3.03;;;;;;;11.86;53.55;101713.25;5048757;28;20041;-77
2022/11/13 00:34:05;;;;;;;6.60;3.43;;;;;;;11.73;52.15;101714.50;5045453;28;20056;-76
2022/11/13 00:36:44;;;;;;;7.43;3.95;;;;;;;11.58;54.25;101709.56;5051659;28;20146;-76
2022/11/13 00:39:15;;;;;;;6.05;3.45;;;;;;;11.48;56.23;101710.91;5053767;28;20048;-74
2022/11/13 00:41:47;;;;;;;10.15;3.05;;;;;;;11.36;58.14;101715.59;5054279;28;20049;-75
2022/11/13 00:44:17;;;;;;;9.02;4.85;;;;;;;11.29;56.97;101721.31;5044731;28;20060;-74
2022/11/13 00:46:46;;;;;;;7.70;4.47;;;;;;;11.19;58.10;101724.34;5047292;28;20076;-76
2022/11/13 00:49:15;;;;;;;9.27;4.60;;;;;;;11.09;58.14;101729.13;5051469;28;20049;-76
2022/11/13 00:51:44;;;;;;;11.07;4.55;;;;;;;10.99;59.41;101732.13;5044700;28;20052;-76
2022/11/13 00:54:12;;;;;;;6.40;4.10;;;;;;;10.90;61.71;101726.53;5045713;28;20041;-74
2022/11/13 00:56:41;;;;;;;6.55;3.85;;;;;;;10.81;61.83;101731.31;5051151;28;20094;-77
2022/11/13 00:59:10;;;;;;;11.27;4.68;;;;;;;10.67;62.45;101729.03;5043595;28;20634;-76
2022/11/13 01:01:41;;;;;;;6.03;3.80;;;;;;;10.53;64.08;101730.09;5051362;28;20044;-75
2022/11/13 01:04:10;;;;;;;5.63;2.97;;;;;;;10.41;67.03;101729.53;5045281;28;20052;-75
2022/11/13 01:06:38;;;;;;;8.38;3.05;;;;;;;10.29;67.89;101729.00;5041958;28;20055;-74
2022/11/13 01:09:07;;;;;;;3.78;2.58;;;;;;;10.19;69.41;101732.78;5042222;28;20528;-75
2022/11/13 01:11:36;;;;;;;6.40;3.33;;;;;;;10.05;70.64;101729.56;5026086;28;20065;-76
2022/11/13 01:14:07;;;;;;;6.18;3.42;;;;;;;9.95;70.02;101735.13;5028234;28;20049;-74
2022/11/13 01:16:36;;;;;;;8.35;3.65;;;;;;;9.83;68.05;101749.25;5029260;28;20053;-74
2022/11/13 01:19:06;;;;;;;10.77;3.42;;;;;;;9.76;65.29;101744.59;5029044;28;20128;-79
2022/11/13 01:21:35;;;;;;;6.32;3.17;;;;;;;9.66;63.41;101747.50;5020808;28;20057;-75
2022/11/13 01:24:06;;;;;;;7.47;3.38;;;;;;;9.57;63.64;101753.13;5025739;28;20482;-74
2022/11/13 01:26:35;;;;;;;7.40;3.40;;;;;;;9.52;64.00;101753.72;5026389;28;20088;-75
2022/11/13 01:29:03;;;;;;;12.30;4.43;;;;;;;9.42;63.60;101753.25;5027211;28;20060;-75
2022/11/13 01:31:32;;;;;;;6.75;3.90;;;;;;;9.33;64.24;101760.53;5022600;28;20075;-75
2022/11/13 01:34:01;;;;;;;4.97;2.90;;;;;;;9.25;63.49;101767.00;5026180;28;21088;-76
2022/11/13 01:36:32;;;;;;;6.20;3.15;;;;;;;9.17;63.57;101768.31;5025765;28;20055;-75
2022/11/13 01:39:01;;;;;;;5.50;3.20;;;;;;;9.07;63.26;101764.38;5026062;28;20132;-76
2022/11/13 01:41:31;;;;;;;6.95;2.80;;;;;;;9.01;64.58;101764.06;5027529;28;20171;-78
2022/11/13 01:44:01;;;;;;;9.38;3.53;;;;;;;8.90;64.45;101768.66;5027991;28;20052;-75
2022/11/13 01:46:35;;;;;;;9.60;4.72;;;;;;;8.85;65.38;101769.22;5029842;28;20543;-76
2022/11/13 01:49:27;;;;;;;8.55;4.28;;;;;;;8.79;65.85;101772.34;5029480;28;20729;-75
2022/11/13 01:51:59;;;;;;;6.07;3.13;;;;;;;8.69;66.00;101771.00;5028849;28;20105;-73
2022/11/13 01:54:30;;;;;;;6.38;2.83;;;;;;;8.60;67.60;101776.53;5026073;28;20740;-74
2022/11/13 01:57:00;;;;;;;5.97;3.88;;;;;;;8.48;68.74;101765.56;5028468;28;20045;-74
2022/11/13 01:59:31;;;;;;;9.52;4.30;;;;;;;8.39;70.28;101778.81;5029509;28;20055;-74
2022/11/13 02:02:00;;;;;;;15.95;6.30;;;;;;;8.35;70.50;101784.59;5028515;28;20049;-74
2022/11/13 02:04:29;;;;;;;15.80;4.88;;;;;;;8.29;70.08;101789.44;5034000;28;20073;-73
2022/11/13 02:07:02;;;;;;;13.73;5.20;;;;;;;8.25;69.65;101796.94;5032414;28;20460;-74
2022/11/13 02:09:36;;;;;;;18.00;5.75;;;;;;;8.14;70.08;101792.03;5024018;28;20060;-74
2022/11/13 02:12:08;;;;;;;12.18;5.40;;;;;;;8.07;70.51;101794.19;5027094;28;20095;-73
2022/11/13 02:14:40;;;;;;;16.73;6.55;;;;;;;8.01;69.19;101805.03;5027596;28;20056;-73
2022/11/13 02:17:15;;;;;;;14.82;5.45;;;;;;;7.96;71.05;101801.31;5025405;28;20041;-74
2022/11/13 02:19:49;;;;;;;15.85;5.13;;;;;;;7.88;71.43;101807.72;5026334;28;20061;-74
2022/11/13 02:22:26;;;;;;;11.18;5.35;;;;;;;7.83;72.31;101809.16;5023972;28;20048;-73
2022/11/13 02:25:00;;;;;;;12.73;4.85;;;;;;;7.70;74.06;101793.00;5021839;28;20042;-74
2022/11/13 02:27:34;;;;;;;14.35;6.15;;;;;;;7.68;74.21;101799.75;5030017;28;20049;-73
2022/11/13 02:30:14;;;;;;;14.20;6.32;;;;;;;7.63;74.68;101793.44;5028755;28;20053;-73
2022/11/13 02:32:46;;;;;;;9.48;5.03;;;;;;;7.58;74.98;101800.00;5030951;28;20054;-72
2022/11/13 02:35:18;;;;;;;12.32;6.00;;;;;;;7.52;74.90;101797.06;5024592;28;20053;-74
2022/11/13 02:37:46;;;;;;;13.38;5.10;;;;;;;7.46;74.19;101805.31;5029011;28;20482;-73
2022/11/13 02:40:17;;;;;;;10.60;5.30;;;;;;;7.39;73.73;101810.91;5029191;28;20060;-73
2022/11/13 02:42:46;;;;;;;12.90;6.30;;;;;;;7.32;73.29;101812.22;5028863;28;20049;-73
2022/11/13 02:45:14;;;;;;;14.60;6.47;;;;;;;7.26;73.62;101809.31;5027460;28;20059;-74
2022/11/13 02:47:43;;;;;;;12.13;5.55;;;;;;;7.22;73.54;101809.91;5031627;28;20076;-74
2022/11/13 02:50:13;;;;;;;11.88;6.03;;;;;;;7.16;73.32;101812.09;5036393;28;20041;-74
2022/11/13 02:52:44;;;;;;;12.55;5.97;;;;;;;7.06;74.05;101812.38;5024021;28;20056;-73
2022/11/13 02:55:13;;;;;;;15.57;6.20;;;;;;;7.04;74.22;101822.56;5027399;28;20507;-73
2022/11/13 02:57:43;;;;;;;12.75;5.35;;;;;;;6.98;74.76;101822.16;5026266;28;20052;-74
2022/11/13 03:00:13;;;;;;;20.60;6.05;;;;;;;6.86;75.82;101817.16;5029877;28;20862;-73
2022/11/13 03:02:42;;;;;;;16.67;6.22;;;;;;;6.78;75.84;101826.13;5031864;28;20037;-72
2022/11/13 03:05:11;;;;;;;14.32;7.07;;;;;;;6.73;76.16;101824.91;5030018;28;20046;-72
2022/11/13 03:07:40;;;;;;;15.52;7.03;;;;;;;6.69;75.73;101828.13;5035415;28;20049;-73
2022/11/13 03:10:10;;;;;;;11.13;6.53;;;;;;;6.65;76.34;101827.03;5037304;28;20065;-73
2022/11/13 03:12:39;;;;;;;14.75;6.75;;;;;;;6.61;76.77;101819.91;5033306;28;20041;-74
2022/11/13 03:15:11;;;;;;;19.98;7.00;;;;;;;6.56;77.09;101823.00;5026970;28;20049;-72
2022/11/13 03:17:40;;;;;;;13.10;6.13;;;;;;;6.49;77.38;101819.16;5032699;28;20193;-71
2022/11/13 03:20:09;;;;;;;11.85;5.50;;;;;;;6.47;77.63;101820.72;5030165;28;20412;-73
2022/11/13 03:22:39;;;;;;;12.23;6.75;;;;;;;6.42;78.89;101825.59;5026245;28;20059;-73
2022/11/13 03:25:09;;;;;;;12.85;7.15;;;;;;;6.38;78.44;101825.28;5027021;28;20092;-74
2022/11/13 03:27:37;;;;;;;23.05;7.55;;;;;;;6.32;77.87;101830.91;5027551;28;20055;-73
2022/11/13 03:30:10;;;;;;;11.00;6.90;;;;;;;6.26;77.88;101827.97;5030021;28;20064;-73
2022/11/13 03:32:39;;;;;;;13.65;6.75;;;;;;;6.22;78.49;101833.69;5029076;28;20049;-72
2022/11/13 03:35:11;;;;;;;19.20;8.57;;;;;;;6.18;78.46;101840.31;5029666;28;20056;-73
2022/11/13 03:37:40;;;;;;;15.75;6.85;;;;;;;6.12;78.88;101837.38;5030492;28;20041;-72
2022/11/13 03:40:10;;;;;;;15.68;7.07;;;;;;;6.10;79.03;101844.09;5031243;28;20514;-73
2022/11/13 03:42:38;;;;;;;12.43;6.93;;;;;;;6.05;79.91;101845.47;5025602;28;20626;-74
2022/11/13 03:45:09;;;;;;;14.18;6.88;;;;;;;6.02;80.31;101847.81;5026592;28;20064;-74
2022/11/13 03:47:40;;;;;;;12.18;6.45;;;;;;;5.97;80.53;101851.78;5026839;28;20037;-74
2022/11/13 03:50:11;;;;;;;14.07;6.90;;;;;;;5.92;80.47;101850.56;5025745;28;20049;-74
2022/11/13 03:52:40;;;;;;;13.77;6.47;;;;;;;5.90;80.68;101842.75;5027830;28;20136;-74
2022/11/13 03:55:11;;;;;;;20.20;6.97;;;;;;;5.79;80.83;101836.88;5030321;28;20534;-75
2022/11/13 03:57:39;;;;;;;14.43;6.57;;;;;;;5.79;81.12;101847.16;5033629;28;20650;-75
2022/11/13 04:00:11;;;;;;;15.60;6.82;;;;;;;5.75;81.85;101850.34;5031662;28;20191;-74
2022/11/13 04:02:40;;;;;;;13.13;6.70;;;;;;;5.71;81.83;101850.91;5035076;28;20059;-72
2022/11/13 04:05:10;;;;;;;13.32;7.28;;;;;;;5.66;81.07;101865.13;5024969;28;20055;-74
2022/11/13 04:07:46;;;;;;;11.77;6.13;;;;;;;5.61;82.02;101859.69;5028245;28;20049;-74
2022/11/13 04:10:15;;;;;;;15.55;7.18;;;;;;;5.57;82.50;101864.50;5036574;28;20053;-74
2022/11/13 04:12:44;;;;;;;19.02;6.68;;;;;;;5.55;82.49;101866.97;5048778;28;20076;-75
2022/11/13 04:15:14;;;;;;;17.67;7.68;;;;;;;5.50;82.63;101868.34;5044761;28;20411;-73
2022/11/13 04:17:43;;;;;;;14.13;6.80;;;;;;;5.49;83.20;101866.53;5046297;28;20122;-75
2022/11/13 04:20:12;;;;;;;11.77;6.18;;;;;;;5.46;84.23;101866.34;5047809;28;20056;-74
2022/11/13 04:22:41;;;;;;;11.93;6.78;;;;;;;5.42;85.23;101864.34;5048528;28;20044;-74
2022/11/13 04:25:10;;;;;;;15.23;7.20;;;;;;;5.40;85.63;101865.91;5046823;28;20049;-78
2022/11/13 04:27:39;;;;;;;10.60;6.10;;;;;;;5.37;85.35;101873.41;5047678;28;20059;-75
2022/11/13 04:30:09;;;;;;;9.40;5.03;;;;;;;5.34;85.28;101880.91;5046965;28;20053;-78
2022/11/13 04:32:39;;;;;;;10.70;5.75;;;;;;;5.30;85.68;101890.06;5044315;28;20045;-79
2022/11/13 04:35:08;;;;;;;17.40;6.55;;;;;;;5.23;86.00;101883.63;5042212;28;20049;-79
2022/11/13 04:37:37;;;;;;;13.77;6.53;;;;;;;5.23;86.02;101895.56;5047414;28;20083;-80
2022/11/13 04:40:07;;;;;;;9.07;5.03;;;;;;;5.09;89.46;101896.28;5047608;28;20055;-77
2022/11/13 04:42:50;;;;;;;17.30;6.00;;;;;;;4.96;90.09;101897.09;5049611;28;20127;-79
2022/11/13 04:45:28;;;;;;;15.75;6.63;;;;;;;4.86;90.86;101902.38;5045738;28;20107;-79
2022/11/13 04:47:58;;;;;;;13.30;6.15;;;;;;;4.84;90.86;101907.38;5040497;28;20136;-79
2022/11/13 04:50:27;;;;;;;15.93;6.15;;;;;;;4.83;90.39;101916.75;5043648;28;20065;-81
2022/11/13 04:52:56;;;;;;;13.55;5.85;;;;;;;4.84;90.18;101922.78;5046474;28;20071;-77
2022/11/13 04:55:24;;;;;;;13.52;5.75;;;;;;;4.82;90.53;101924.31;5043300;28;20103;-79
2022/11/13 04:57:55;;;;;;;11.70;5.97;;;;;;;4.83;91.43;101934.72;5048775;28;20079;-79
2022/11/13 05:00:24;;;;;;;8.98;6.00;;;;;;;4.82;90.72;101929.47;5046417;28;20503;-75
2022/11/13 05:02:52;;;;;;;10.82;5.90;;;;;;;4.79;90.53;101930.13;5045818;28;20517;-75
2022/11/13 05:05:23;;;;;;;14.75;6.10;;;;;;;4.79;90.63;101936.94;5044146;28;20045;-82
2022/11/13 05:07:54;;;;;;;12.95;5.85;;;;;;;4.70;90.67;101924.34;5045887;28;20067;-79
2022/11/13 05:10:23;;;;;;;12.80;6.40;;;;;;;4.71;90.81;101935.50;5045195;28;20049;-78
2022/11/13 05:12:51;;;;;;;8.95;4.97;;;;;;;4.69;90.33;101948.19;5044131;28;20128;-78
2022/11/13 05:15:20;;;;;;;10.80;6.00;;;;;;;4.66;89.45;101942.84;5043670;28;20546;-77
2022/11/13 05:17:50;;;;;;;10.07;5.45;;;;;;;4.60;90.07;101953.56;5046527;28;20086;-78
2022/11/13 05:20:20;;;;;;;9.40;5.57;;;;;;;4.48;92.01;101955.22;5046111;28;20049;-77
2022/11/13 05:22:51;;;;;;;15.50;5.93;;;;;;;4.43;93.55;101951.44;5046900;28;20057;-81
2022/11/13 05:25:19;;;;;;;16.50;6.75;;;;;;;4.40;93.18;101954.66;5043325;28;20053;-78
2022/11/13 05:27:48;;;;;;;16.92;6.15;;;;;;;4.34;94.10;101949.06;5044097;28;20045;-78
2022/11/13 05:30:19;;;;;;;11.18;6.65;;;;;;;4.38;93.83;101956.22;5042961;28;20071;-80
2022/11/13 05:32:48;;;;;;;13.65;7.18;;;;;;;4.38;94.32;101956.22;5044850;28;20076;-79
2022/11/13 05:35:17;;;;;;;14.95;6.68;;;;;;;4.39;93.97;101951.97;5039861;28;20041;-82
2022/11/13 05:37:45;;;;;;;16.30;6.70;;;;;;;4.39;94.37;101952.84;5047325;28;20041;-81
2022/11/13 05:40:16;;;;;;;15.70;6.85;;;;;;;4.39;93.94;101958.00;5044812;28;20048;-79
2022/11/13 05:42:47;;;;;;;15.77;7.28;;;;;;;4.40;92.37;101958.91;5045834;28;20047;-80
2022/11/13 05:45:16;;;;;;;17.90;6.97;;;;;;;4.37;91.55;101966.34;5043083;28;20124;-83
2022/11/13 05:47:45;;;;;;;13.10;7.03;;;;;;;4.31;92.57;101960.78;5045406;28;20053;-78
2022/11/13 05:50:13;;;;;;;10.45;6.88;;;;;;;4.23;92.62;101951.63;5042531;28;20051;-79
2022/11/13 05:52:42;;;;;;;11.15;5.65;;;;;;;4.28;93.25;101966.56;5052643;28;20049;-78
2022/11/13 05:55:11;;;;;;;12.20;5.70;;;;;;;4.28;93.03;101965.66;5046176;28;20052;-79
2022/11/13 05:57:41;;;;;;;14.55;5.82;;;;;;;4.24;93.63;101963.66;5047598;28;20205;-79
2022/11/13 06:00:11;;;;;;;11.65;5.20;;;;;;;4.24;93.74;101967.13;5053102;28;20063;-82
2022/11/13 06:02:40;;;;;;;11.82;5.38;;;;;;;4.24;93.55;101969.69;5050958;28;20051;-80
2022/11/13 06:05:09;;;;;;;10.77;4.57;;;;;;;4.22;93.46;101966.13;5043814;28;20045;-79
2022/11/13 06:07:37;;;;;;;10.40;5.63;;;;;;;4.19;92.86;101973.56;5047237;28;20064;-78
2022/11/13 06:10:07;;;;;;;11.25;5.38;;;;;;;4.15;93.16;101966.44;5049201;28;20114;-80
2022/11/13 06:12:36;;;;;;;10.40;6.10;;;;;;;4.08;94.55;101989.81;5050020;28;20132;-81
2022/11/13 06:15:07;;;;;;;11.30;5.35;;;;;;;4.01;93.92;101977.28;5049423;28;20617;-84
2022/11/13 06:17:36;;;;;;;15.95;5.05;;;;;;;4.02;94.86;101979.09;5046285;28;20047;-77
2022/11/13 06:20:05;;;;;;;13.63;5.63;;;;;;;4.03;95.61;101993.69;5049047;28;20100;-78
2022/11/13 06:22:33;;;;;;;14.15;5.25;;;;;;;4.02;95.47;101981.66;5044463;28;20114;-80
2022/11/13 06:25:02;;;;;;;13.07;6.40;;;;;;;4.02;95.39;101986.78;5049428;28;20052;-79
2022/11/13 06:27:31;;;;;;;12.43;6.07;;;;;;;3.98;95.33;101978.84;5048688;28;20646;-81
2022/11/13 06:29:59;;;;;;;12.45;5.63;;;;;;;4.00;95.62;101984.09;5049294;28;20064;-81
2022/11/13 06:32:29;;;;;;;11.15;6.35;;;;;;;3.97;95.92;101991.56;5046304;28;20049;-74
2022/11/13 06:34:58;;;;;;;10.63;6.07;;;;;;;3.95;95.82;101988.88;5047214;28;20083;-79
2022/11/13 06:37:27;;;;;;;16.40;7.40;;;;;;;3.94;95.97;101992.22;5056690;28;20047;-78
2022/11/13 06:39:57;;;;;;;14.23;7.95;;;;;;;3.96;95.94;101990.66;5049194;28;20051;-80
2022/11/13 06:42:28;;;;;;;20.77;9.38;;;;;;;3.98;95.84;101994.22;5055334;28;20053;-80
2022/11/13 06:44:57;;;;;;;17.13;7.05;;;;;;;3.96;96.29;101994.88;5045773;28;20045;-78
2022/11/13 06:47:25;;;;;;;17.83;7.70;;;;;;;3.95;94.63;101993.09;5052434;28;20063;-79
2022/11/13 06:49:56;;;;;;;19.20;7.60;;;;;;;3.92;94.49;101993.78;5051976;28;20041;-76
2022/11/13 06:52:26;;;;;;;21.05;8.57;;;;;;;3.91;94.01;101999.66;5050435;28;20045;-77
2022/11/13 06:54:55;;;;;;;16.50;8.02;;;;;;;3.86;93.07;101993.28;5050366;28;20635;-78
2022/11/13 06:57:23;;;;;;;16.77;7.20;;;;;;;3.81;93.39;102006.53;5050124;28;20588;-77
2022/11/13 06:59:52;;;;;;;17.75;7.55;;;;;;;3.79;93.11;102006.41;5054142;28;20053;-80
2022/11/13 07:02:21;;;;;;;15.48;7.68;;;;;;;3.78;92.96;102012.31;5049991;28;20048;-77
2022/11/13 07:04:49;;;;;;;20.38;7.97;;;;;;;3.74;91.80;102007.72;5051623;28;20149;-80
2022/11/13 07:07:20;;;;;;;18.08;7.03;;;;;;;3.68;91.55;102014.91;5048817;28;20056;-81
2022/11/13 07:09:48;;;;;;;14.35;7.25;;;;;;;3.62;91.73;102015.34;5052280;28;20707;-81
2022/11/13 07:12:17;;;;;;;19.65;7.10;;;;;;;3.56;91.66;102013.19;5050577;28;20045;-77
2022/11/13 07:14:46;;;;;;;15.77;7.75;;;;;;;3.50;92.37;102007.59;5047945;28;20045;-77
2022/11/13 07:17:15;;;;;;;22.17;8.07;;;;;;;3.40;94.52;102010.22;5048151;28;20111;-77
2022/11/13 07:19:43;;;;;;;16.30;6.65;;;;;;;3.30;95.20;102023.06;5049366;28;20049;-76
2022/11/13 07:22:12;;;;;;;15.45;6.53;;;;;;;3.25;96.38;102024.34;5046437;28;20597;-77
2022/11/13 07:24:44;;;;;;;16.90;7.32;;;;;;;3.26;96.44;102021.94;5044249;28;20059;-77
2022/11/13 07:27:13;;;;;;;20.42;7.53;;;;;;;3.29;96.30;102027.28;5044361;28;20053;-77
2022/11/13 07:29:41;;;;;;;17.75;6.85;;;;;;;3.29;95.12;102022.16;5048285;28;20052;-76
2022/11/13 07:32:10;;;;;;;12.07;6.03;;;;;;;3.30;95.44;102023.06;5045427;28;20052;-77
2022/11/13 07:34:39;;;;;;;12.07;7.13;;;;;;;3.27;95.07;102027.91;5046875;28;20090;-76
2022/11/13 07:37:07;;;;;;;19.52;6.80;;;;;;;3.28;94.38;102045.06;5044629;28;20045;-76
2022/11/13 07:39:36;;;;;;;14.95;6.80;;;;;;;3.29;93.81;102044.28;5044632;28;20055;-76
2022/11/13 07:42:06;;;;;;;16.00;6.65;;;;;;;3.27;93.68;102038.16;5045292;28;20057;-76
2022/11/13 07:44:35;;;;;;;16.17;6.07;;;;;;;3.23;92.17;102041.22;5045404;28;20116;-76
2022/11/13 07:47:04;;;;;;;13.35;6.80;;;;;;;3.19;92.82;102040.13;5045509;28;20083;-76
2022/11/13 07:49:32;;;;;;;14.50;6.90;;;;;;;3.22;93.24;102044.59;5047184;28;20650;-76
2022/11/13 07:52:01;;;;;;;15.18;8.18;;;;;;;3.19;93.51;102041.78;5048796;28;20120;-77
2022/11/13 07:54:30;;;;;;;19.55;6.68;;;;;;;3.13;92.14;102043.06;5046286;28;20052;-76
2022/11/13 07:56:58;;;;;;;13.07;6.63;;;;;;;3.13;93.68;102034.50;5047240;28;20510;-76
2022/11/13 07:59:29;;;;;;;14.77;6.68;;;;;;;3.12;93.24;102042.97;5050147;28;20057;-77
2022/11/13 08:01:57;;;;;;;14.25;6.30;;;;;;;3.09;93.68;102043.63;5047540;28;20056;-77
2022/11/13 08:04:27;;;;;;;15.48;7.10;;;;;;;3.09;94.18;102043.63;5047719;28;20052;-77
2022/11/13 08:06:55;;;;;;;15.80;7.30;;;;;;;3.09;93.67;102048.72;5051034;28;20049;-77
2022/11/13 08:09:24;;;;;;;12.35;6.13;;;;;;;3.05;93.60;102056.91;5049169;28;20053;-77
2022/11/13 08:11:53;;;;;;;12.50;6.30;;;;;;;2.98;94.19;102049.53;5053642;28;20052;-76
2022/11/13 08:14:21;;;;;;;10.80;5.63;;;;;;;2.94;94.19;102042.38;5044982;28;20051;-76
2022/11/13 08:16:54;;;;;;;15.90;6.75;;;;;;;2.97;94.81;102047.72;5043078;28;20057;-77
2022/11/13 08:19:23;;;;;;;13.32;6.40;;;;;;;2.96;94.61;102056.19;5045419;28;20045;-76
2022/11/13 08:21:51;;;;;;;14.50;7.68;;;;;;;2.91;93.77;102055.81;5047097;28;20045;-76
2022/11/13 08:24:20;;;;;;;17.23;5.90;;;;;;;2.81;95.35;102050.69;5046518;28;20037;-76
2022/11/13 08:26:51;;;;;;;14.18;7.07;;;;;;;2.74;97.28;102053.53;5045477;28;20053;-77
2022/11/13 08:29:20;;;;;;;13.02;6.03;;;;;;;2.73;97.53;102056.84;5049944;28;20045;-76
2022/11/13 08:31:48;;;;;;;8.65;4.57;;;;;;;2.73;96.32;102055.19;5042626;28;20041;-76
2022/11/13 08:34:19;;;;;;;14.43;6.05;;;;;;;2.75;95.63;102049.28;5044318;28;20140;-76
2022/11/13 08:36:49;;;;;;;9.32;4.97;;;;;;;2.75;95.42;102051.84;5044405;28;20056;-77
2022/11/13 08:39:18;;;;;;;10.55;5.85;;;;;;;2.73;96.15;102046.63;5043417;28;20504;-76
2022/11/13 08:41:46;;;;;;;10.25;5.93;;;;;;;2.76;95.44;102053.66;5045797;28;20070;-76
2022/11/13 08:44:15;;;;;;;13.40;5.85;;;;;;;2.75;94.41;102049.28;5048031;28;20061;-76
2022/11/13 08:46:44;;;;;;;18.33;6.40;;;;;;;2.74;94.53;102048.41;5044580;28;20052;-76
2022/11/13 08:49:14;;;;;;;16.65;6.05;;;;;;;2.73;94.21;102050.06;5049413;28;20123;-76
2022/11/13 08:51:44;;;;;;;13.13;5.60;;;;;;;2.69;93.99;102044.59;5047941;28;20052;-76
2022/11/13 08:54:13;;;;;;;12.02;5.43;;;;;;;2.67;93.77;102046.13;5045123;28;20049;-75
2022/11/13 08:56:41;;;;;;;10.63;5.63;;;;;;;2.64;93.63;102056.09;5047034;28;20048;-75
2022/11/13 08:59:11;;;;;;;14.32;6.55;;;;;;;2.61;93.36;102061.88;5047696;28;20528;-75
2022/11/13 09:01:41;;;;;;;15.75;6.10;;;;;;;2.58;93.92;102060.69;5048670;28;20716;-75
2022/11/13 09:04:10;;;;;;;13.85;5.63;;;;;;;2.55;93.76;102058.78;5050158;28;20056;-75
2022/11/13 09:06:39;;;;;;;14.07;6.47;;;;;;;2.52;95.06;102053.44;5049633;28;20040;-76
2022/11/13 09:09:09;;;;;;;16.95;5.78;;;;;;;2.51;95.18;102061.84;5050788;28;20048;-76
2022/11/13 09:11:40;;;;;;;25.40;6.97;;;;;;;2.48;95.04;102066.72;5049332;28;20049;-76
2022/11/13 09:14:09;;;;;;;11.93;6.03;;;;;;;2.46;95.78;102068.25;5048472;28;20649;-76
2022/11/13 09:16:38;;;;;;;12.73;6.97;;;;;;;2.46;95.68;102064.03;5042807;28;20055;-76
2022/11/13 09:19:07;;;;;;;16.88;6.45;;;;;;;2.42;96.54;102066.19;5040679;28;20053;-75
2022/11/13 09:21:38;;;;;;;13.10;6.25;;;;;;;2.41;95.33;102069.53;5042486;28;20037;-76
2022/11/13 09:24:09;;;;;;;12.75;6.43;;;;;;;2.42;96.06;102068.75;5045373;28;20041;-75
2022/11/13 09:26:37;;;;;;;9.73;5.68;;;;;;;2.38;97.01;102056.50;5040930;28;20692;-76
2022/11/13 09:29:06;;;;;;;14.57;6.88;;;;;;;2.39;96.45;102068.50;5045706;28;20052;-75
2022/11/13 09:31:35;;;;;;;22.50;8.68;;;;;;;2.37;95.38;102067.50;5044795;28;20159;-76
2022/11/13 09:34:03;;;;;;;16.15;7.47;;;;;;;2.36;95.55;102070.78;5044292;28;20051;-76
2022/11/13 09:36:35;;;;;;;15.43;7.45;;;;;;;2.35;96.25;102069.00;5039056;28;20049;-76
2022/11/13 09:39:03;;;;;;;16.42;7.20;;;;;;;2.33;96.49;102073.09;5043952;28;20049;-76
2022/11/13 09:41:40;;;;;;;21.20;7.25;;;;;;;2.26;95.93;102064.03;5042153;28;20045;-75
2022/11/13 09:44:16;;;;;;;12.77;6.47;;;;;;;2.26;95.97;102071.69;5047576;28;20049;-75
2022/11/13 09:46:48;;;;;;;17.00;7.20;;;;;;;2.26;96.75;102077.69;5039932;28;20053;-75
2022/11/13 09:49:18;;;;;;;21.25;8.18;;;;;;;2.26;97.26;102082.78;5048142;28;20077;-75
2022/11/13 09:51:54;;;;;;;16.88;9.05;;;;;;;2.24;96.52;102088.53;5046348;28;20048;-74
2022/11/13 09:54:23;;;;;;;16.70;7.60;;;;;;;2.17;95.26;102084.56;5045642;28;20049;-75
2022/11/13 09:57:02;;;;;;;13.13;6.85;;;;;;;2.17;94.96;102087.13;5045480;28;20048;-76
2022/11/13 09:59:37;;;;;;;16.65;6.85;;;;;;;2.17;96.14;102101.56;5044248;28;20052;-75
2022/11/13 10:02:22;;;;;;;19.73;7.88;;;;;;;2.15;95.88;102101.41;5046365;28;20248;-75
2022/11/13 10:05:01;;;;;;;13.68;5.72;;;;;;;2.14;96.71;102104.75;5045030;28;20902;-76
2022/11/13 10:07:37;;;;;;;11.23;6.18;;;;;;;2.14;96.72;102102.19;5040042;28;20068;-76
2022/11/13 10:10:33;;;;;;;12.10;6.13;;;;;;;2.13;96.70;102110.63;5046745;28;20064;-76
2022/11/13 10:13:06;;;;;;;13.10;5.80;;;;;;;2.10;96.70;102110.34;5044116;28;20059;-77
2022/11/13 10:15:37;;;;;;;11.77;6.00;;;;;;;2.05;95.99;102111.63;5045028;28;20103;-76
2022/11/13 10:18:12;;;;;;;13.55;6.78;;;;;;;2.06;96.83;102123.63;5046961;28;20049;-76
2022/11/13 10:20:48;;;;;;;10.27;5.68;;;;;;;2.06;96.45;102121.97;5038911;28;20041;-76
2022/11/13 10:23:20;;;;;;;10.75;6.55;;;;;;;2.07;96.85;102130.53;5045380;28;20505;-77
2022/11/13 10:25:51;;;;;;;14.93;6.10;;;;;;;2.06;97.67;102123.63;5042829;28;20049;-78
2022/11/13 10:28:23;;;;;;;11.68;5.00;;;;;;;2.00;98.18;102118.00;5042580;28;20576;-78
2022/11/13 10:30:52;;;;;;;13.82;6.22;;;;;;;2.02;99.35;102112.25;5044854;28;21116;-77
2022/11/13 10:33:22;;;;;;;12.10;5.50;;;;;;;2.05;98.62;102121.84;5045515;28;20495;-77
2022/11/13 10:35:59;;;;;;;11.35;5.60;;;;;;;2.04;98.63;102127.72;5044026;28;20045;-74
2022/11/13 10:38:36;;;;;;;12.20;6.30;;;;;;;2.03;98.27;102123.38;5037151;28;20392;-76
2022/11/13 10:41:12;;;;;;;13.27;6.38;;;;;;;2.01;97.40;102125.78;5042215;28;20061;-73
2022/11/13 10:43:52;;;;;;;9.68;5.32;;;;;;;1.95;96.88;102116.69;5046220;28;20053;-75
2022/11/13 10:46:23;;;;;;;17.23;6.25;;;;;;;1.97;96.47;102128.84;5048410;28;21353;-75
2022/11/13 10:48:52;;;;;;;12.50;5.22;;;;;;;1.98;96.92;102139.94;5048047;28;20044;-75
2022/11/13 10:51:24;;;;;;;13.20;6.05;;;;;;;1.97;96.96;102140.69;5045860;28;20056;-73
2022/11/13 10:53:58;;;;;;;10.15;4.53;;;;;;;1.93;97.28;102125.91;5046400;28;20048;-75
2022/11/13 10:56:29;;;;;;;9.23;4.18;;;;;;;1.93;97.19;102123.34;5048633;28;20057;-73
2022/11/13 10:59:12;;;;;;;14.73;6.03;;;;;;;1.93;97.52;102131.91;5046080;28;20048;-75
2022/11/13 11:01:42;;;;;;;10.90;5.22;;;;;;;1.93;98.10;102131.00;5045128;28;20053;-74
2022/11/13 11:04:15;;;;;;;13.30;5.50;;;;;;;1.91;97.57;102135.09;5051226;28;20132;-74
2022/11/13 11:06:42;;;;;;;;;;;;;;;1.88;98.34;102131.50;5051339;28;20052;-74
2022/11/13 11:09:21;;;;;;;8.02;4.70;;;;;;;1.84;98.20;102126.00;5046207;28;19929;-75
2022/11/13 11:12:17;;;;;;;9.30;4.88;;;;;;;1.85;98.25;102128.66;5049880;28;20624;-73
2022/11/13 11:15:10;;;;;;;9.32;4.43;;;;;;;1.80;97.05;102129.94;5045474;28;20320;-74
2022/11/13 11:17:50;;;;;;;10.18;4.53;;;;;;;1.78;97.96;102134.00;5049003;28;20041;-74
2022/11/13 11:20:26;;;;;;;10.43;4.15;;;;;;;1.77;97.33;102133.91;5044808;28;20044;-73
2022/11/13 11:22:59;;;;;;;7.50;3.97;;;;;;;1.76;97.54;102132.97;5047231;28;20580;-74
2022/11/13 11:25:44;;;;;;;12.52;4.15;;;;;;;1.77;98.54;102144.09;5054330;28;20087;-74
2022/11/13 11:28:19;;;;;;;7.85;4.22;;;;;;;1.75;98.89;102141.41;5046470;28;20052;-74
2022/11/13 11:30:54;;;;;;;10.55;4.25;;;;;;;1.73;99.33;102137.81;5046033;28;20052;-74
2022/11/13 11:33:32;;;;;;;8.20;4.50;;;;;;;1.72;97.59;102140.22;5047263;28;20049;-74
2022/11/13 11:36:08;;;;;;;7.40;4.03;;;;;;;1.65;96.69;102151.59;5045927;28;20064;-75
2022/11/13 11:38:43;;;;;;;8.48;4.28;;;;;;;1.63;96.87;102155.66;5047288;28;20338;-74
2022/11/13 11:41:14;;;;;;;10.38;5.53;;;;;;;1.62;97.31;102148.75;5044765;28;20052;-75
2022/11/13 11:43:46;;;;;;;11.32;5.00;;;;;;;1.58;97.11;102144.13;5050435;28;20155;-75